sensor_id;sensor_type;location;lat;lon;timestamp;P1;durP1;ratioP1;P2;durP2;ratioP2
51556;SDS011;38766;53.194;5.532;2022-11-09T00:02:19;6.45;;;2.20;;
51556;SDS011;38766;53.194;5.532;2022-11-09T00:04:51;5.30;;;1.85;;
51556;SDS011;38766;53.194;5.532;2022-11-09T00:07:17;6.45;;;1.65;;
51556;SDS011;38766;53.194;5.532;2022-11-09T00:09:42;5.13;;;1.20;;
51556;SDS011;38766;53.194;5.532;2022-11-09T00:12:11;5.18;;;1.48;;
51556;SDS011;38766;53.194;5.532;2022-11-09T00:14:37;7.82;;;1.90;;
51556;SDS011;38766;53.194;5.532;2022-11-09T00:17:03;5.70;;;1.80;;
51556;SDS011;38766;53.194;5.532;2022-11-09T00:19:29;7.13;;;1.70;;
51556;SDS011;38766;53.194;5.532;2022-11-09T00:21:54;7.68;;;2.42;;
51556;SDS011;38766;53.194;5.532;2022-11-09T00:24:20;4.78;;;1.90;;
51556;SDS011;38766;53.194;5.532;2022-11-09T00:26:46;5.78;;;1.92;;
51556;SDS011;38766;53.194;5.532;2022-11-09T00:29:11;8.18;;;2.40;;
51556;SDS011;38766;53.194;5.532;2022-11-09T00:31:37;4.75;;;2.30;;
51556;SDS011;38766;53.194;5.532;2022-11-09T00:34:02;6.05;;;1.98;;
51556;SDS011;38766;53.194;5.532;2022-11-09T00:36:28;7.18;;;2.33;;
51556;SDS011;38766;53.194;5.532;2022-11-09T00:38:55;6.30;;;2.50;;
51556;SDS011;38766;53.194;5.532;2022-11-09T00:41:23;9.55;;;2.40;;
51556;SDS011;38766;53.194;5.532;2022-11-09T00:43:49;12.40;;;2.72;;
51556;SDS011;38766;53.194;5.532;2022-11-09T00:46:15;9.90;;;3.05;;
51556;SDS011;38766;53.194;5.532;2022-11-09T00:48:41;8.00;;;2.63;;
51556;SDS011;38766;53.194;5.532;2022-11-09T00:51:07;12.82;;;2.58;;
51556;SDS011;38766;53.194;5.532;2022-11-09T00:53:33;6.20;;;2.05;;
51556;SDS011;38766;53.194;5.532;2022-11-09T00:56:06;6.80;;;2.40;;
51556;SDS011;38766;53.194;5.532;2022-11-09T00:58:35;10.10;;;2.47;;
51556;SDS011;38766;53.194;5.532;2022-11-09T01:01:09;9.93;;;2.58;;
51556;SDS011;38766;53.194;5.532;2022-11-09T01:03:37;7.22;;;2.58;;
51556;SDS011;38766;53.194;5.532;2022-11-09T01:06:03;5.80;;;2.92;;
51556;SDS011;38766;53.194;5.532;2022-11-09T01:08:29;11.95;;;2.25;;
51556;SDS011;38766;53.194;5.532;2022-11-09T01:11:02;8.57;;;2.63;;
51556;SDS011;38766;53.194;5.532;2022-11-09T01:13:29;10.80;;;2.78;;
51556;SDS011;38766;53.194;5.532;2022-11-09T01:15:54;8.32;;;2.70;;
51556;SDS011;38766;53.194;5.532;2022-11-09T01:18:20;6.75;;;2.60;;
51556;SDS011;38766;53.194;5.532;2022-11-09T01:20:48;12.82;;;3.30;;
51556;SDS011;38766;53.194;5.532;2022-11-09T01:23:14;9.32;;;2.70;;
51556;SDS011;38766;53.194;5.532;2022-11-09T01:25:41;7.22;;;2.40;;
51556;SDS011;38766;53.194;5.532;2022-11-09T01:28:07;5.85;;;2.50;;
51556;SDS011;38766;53.194;5.532;2022-11-09T01:30:38;7.68;;;2.50;;
51556;SDS011;38766;53.194;5.532;2022-11-09T01:33:07;11.00;;;2.33;;
51556;SDS011;38766;53.194;5.532;2022-11-09T01:35:34;11.05;;;1.95;;
51556;SDS011;38766;53.194;5.532;2022-11-09T01:38:01;7.28;;;2.05;;
51556;SDS011;38766;53.194;5.532;2022-11-09T01:40:28;10.27;;;2.38;;
51556;SDS011;38766;53.194;5.532;2022-11-09T01:42:54;7.75;;;2.50;;
51556;SDS011;38766;53.194;5.532;2022-11-09T01:45:21;7.22;;;2.50;;
51556;SDS011;38766;53.194;5.532;2022-11-09T01:47:49;5.82;;;2.20;;
51556;SDS011;38766;53.194;5.532;2022-11-09T01:50:23;5.97;;;2.53;;
51556;SDS011;38766;53.194;5.532;2022-11-09T01:52:59;7.70;;;2.45;;
51556;SDS011;38766;53.194;5.532;2022-11-09T01:55:28;6.40;;;2.70;;
51556;SDS011;38766;53.194;5.532;2022-11-09T01:57:56;7.90;;;2.88;;
51556;SDS011;38766;53.194;5.532;2022-11-09T02:00:25;9.23;;;2.97;;
51556;SDS011;38766;53.194;5.532;2022-11-09T02:02:54;7.55;;;2.63;;
51556;SDS011;38766;53.194;5.532;2022-11-09T02:05:23;9.02;;;2.88;;
51556;SDS011;38766;53.194;5.532;2022-11-09T02:07:52;8.98;;;3.35;;
51556;SDS011;38766;53.194;5.532;2022-11-09T02:10:21;8.07;;;3.28;;
51556;SDS011;38766;53.194;5.532;2022-11-09T02:13:01;8.82;;;3.28;;
51556;SDS011;38766;53.194;5.532;2022-11-09T02:15:28;9.93;;;3.65;;
51556;SDS011;38766;53.194;5.532;2022-11-09T02:17:53;7.88;;;3.05;;
51556;SDS011;38766;53.194;5.532;2022-11-09T02:20:20;9.68;;;3.17;;
51556;SDS011;38766;53.194;5.532;2022-11-09T02:22:47;9.82;;;3.22;;
51556;SDS011;38766;53.194;5.532;2022-11-09T02:25:13;7.93;;;3.03;;
51556;SDS011;38766;53.194;5.532;2022-11-09T02:27:40;8.00;;;3.05;;
51556;SDS011;38766;53.194;5.532;2022-11-09T02:30:07;8.55;;;3.20;;
51556;SDS011;38766;53.194;5.532;2022-11-09T02:32:33;10.23;;;3.00;;
51556;SDS011;38766;53.194;5.532;2022-11-09T02:34:59;9.73;;;2.78;;
51556;SDS011;38766;53.194;5.532;2022-11-09T02:37:29;7.05;;;2.90;;
51556;SDS011;38766;53.194;5.532;2022-11-09T02:39:59;11.48;;;2.65;;
51556;SDS011;38766;53.194;5.532;2022-11-09T02:42:26;9.93;;;2.70;;
51556;SDS011;38766;53.194;5.532;2022-11-09T02:44:57;8.30;;;2.75;;
51556;SDS011;38766;53.194;5.532;2022-11-09T02:47:24;10.65;;;2.95;;
51556;SDS011;38766;53.194;5.532;2022-11-09T02:49:49;10.77;;;3.20;;
51556;SDS011;38766;53.194;5.532;2022-11-09T02:52:15;11.85;;;3.28;;
51556;SDS011;38766;53.194;5.532;2022-11-09T02:54:42;6.47;;;2.78;;
51556;SDS011;38766;53.194;5.532;2022-11-09T02:57:07;12.43;;;3.00;;
51556;SDS011;38766;53.194;5.532;2022-11-09T02:59:33;11.25;;;2.92;;
51556;SDS011;38766;53.194;5.532;2022-11-09T03:01:59;13.07;;;3.30;;
51556;SDS011;38766;53.194;5.532;2022-11-09T03:04:24;13.63;;;3.10;;
51556;SDS011;38766;53.194;5.532;2022-11-09T03:06:50;12.25;;;3.33;;
51556;SDS011;38766;53.194;5.532;2022-11-09T03:09:15;13.73;;;2.88;;
51556;SDS011;38766;53.194;5.532;2022-11-09T03:11:41;10.45;;;3.00;;
51556;SDS011;38766;53.194;5.532;2022-11-09T03:14:07;8.48;;;3.10;;
51556;SDS011;38766;53.194;5.532;2022-11-09T03:16:34;9.23;;;2.50;;
51556;SDS011;38766;53.194;5.532;2022-11-09T03:19:00;9.40;;;3.63;;
51556;SDS011;38766;53.194;5.532;2022-11-09T03:21:27;10.75;;;2.60;;
51556;SDS011;38766;53.194;5.532;2022-11-09T03:23:53;8.65;;;2.75;;
51556;SDS011;38766;53.194;5.532;2022-11-09T03:26:19;10.80;;;2.88;;
51556;SDS011;38766;53.194;5.532;2022-11-09T03:28:45;11.65;;;2.88;;
51556;SDS011;38766;53.194;5.532;2022-11-09T03:31:11;11.13;;;2.80;;
51556;SDS011;38766;53.194;5.532;2022-11-09T03:33:37;14.80;;;3.25;;
51556;SDS011;38766;53.194;5.532;2022-11-09T03:36:03;15.82;;;2.92;;
51556;SDS011;38766;53.194;5.532;2022-11-09T03:38:29;10.00;;;3.20;;
51556;SDS011;38766;53.194;5.532;2022-11-09T03:40:54;10.20;;;2.88;;
51556;SDS011;38766;53.194;5.532;2022-11-09T03:43:20;10.65;;;3.10;;
51556;SDS011;38766;53.194;5.532;2022-11-09T03:45:46;12.85;;;3.13;;
51556;SDS011;38766;53.194;5.532;2022-11-09T03:48:12;11.57;;;2.67;;
51556;SDS011;38766;53.194;5.532;2022-11-09T03:50:37;10.60;;;3.30;;
51556;SDS011;38766;53.194;5.532;2022-11-09T03:53:05;8.57;;;2.60;;
51556;SDS011;38766;53.194;5.532;2022-11-09T03:55:32;9.40;;;2.40;;
51556;SDS011;38766;53.194;5.532;2022-11-09T03:57:57;11.25;;;2.80;;
51556;SDS011;38766;53.194;5.532;2022-11-09T04:00:23;10.80;;;2.70;;
51556;SDS011;38766;53.194;5.532;2022-11-09T04:02:49;8.13;;;2.47;;
51556;SDS011;38766;53.194;5.532;2022-11-09T04:05:15;7.72;;;2.53;;
51556;SDS011;38766;53.194;5.532;2022-11-09T04:07:54;6.28;;;2.40;;
51556;SDS011;38766;53.194;5.532;2022-11-09T04:10:21;11.52;;;2.90;;
51556;SDS011;38766;53.194;5.532;2022-11-09T04:12:48;10.82;;;2.55;;
51556;SDS011;38766;53.194;5.532;2022-11-09T04:15:14;9.13;;;2.60;;
51556;SDS011;38766;53.194;5.532;2022-11-09T04:17:40;10.93;;;2.80;;
51556;SDS011;38766;53.194;5.532;2022-11-09T04:20:09;11.35;;;3.05;;
51556;SDS011;38766;53.194;5.532;2022-11-09T04:22:35;9.65;;;2.85;;
51556;SDS011;38766;53.194;5.532;2022-11-09T04:25:01;10.52;;;2.75;;
51556;SDS011;38766;53.194;5.532;2022-11-09T04:27:28;14.32;;;2.80;;
51556;SDS011;38766;53.194;5.532;2022-11-09T04:29:54;10.63;;;3.08;;
51556;SDS011;38766;53.194;5.532;2022-11-09T04:32:19;8.73;;;2.95;;
51556;SDS011;38766;53.194;5.532;2022-11-09T04:34:45;12.52;;;3.65;;
51556;SDS011;38766;53.194;5.532;2022-11-09T04:37:10;12.70;;;2.97;;
51556;SDS011;38766;53.194;5.532;2022-11-09T04:39:36;11.57;;;3.47;;
51556;SDS011;38766;53.194;5.532;2022-11-09T04:42:02;13.05;;;2.75;;
51556;SDS011;38766;53.194;5.532;2022-11-09T04:44:27;15.38;;;3.35;;
51556;SDS011;38766;53.194;5.532;2022-11-09T04:46:53;11.07;;;3.30;;
51556;SDS011;38766;53.194;5.532;2022-11-09T04:49:19;12.75;;;2.90;;
51556;SDS011;38766;53.194;5.532;2022-11-09T04:51:45;14.02;;;3.92;;
51556;SDS011;38766;53.194;5.532;2022-11-09T04:54:10;9.98;;;3.28;;
51556;SDS011;38766;53.194;5.532;2022-11-09T04:56:36;12.60;;;2.85;;
51556;SDS011;38766;53.194;5.532;2022-11-09T04:59:02;10.45;;;3.33;;
51556;SDS011;38766;53.194;5.532;2022-11-09T05:01:27;13.43;;;3.28;;
51556;SDS011;38766;53.194;5.532;2022-11-09T05:03:53;11.27;;;2.78;;
51556;SDS011;38766;53.194;5.532;2022-11-09T05:06:19;12.98;;;3.67;;
51556;SDS011;38766;53.194;5.532;2022-11-09T05:08:57;11.50;;;3.15;;
51556;SDS011;38766;53.194;5.532;2022-11-09T05:11:28;14.32;;;2.75;;
51556;SDS011;38766;53.194;5.532;2022-11-09T05:13:54;14.00;;;3.38;;
51556;SDS011;38766;53.194;5.532;2022-11-09T05:16:20;9.95;;;2.58;;
51556;SDS011;38766;53.194;5.532;2022-11-09T05:18:47;11.65;;;3.33;;
51556;SDS011;38766;53.194;5.532;2022-11-09T05:21:13;12.00;;;2.80;;
51556;SDS011;38766;53.194;5.532;2022-11-09T05:23:39;14.48;;;3.05;;
51556;SDS011;38766;53.194;5.532;2022-11-09T05:26:23;9.57;;;2.70;;
51556;SDS011;38766;53.194;5.532;2022-11-09T05:28:49;12.27;;;3.40;;
51556;SDS011;38766;53.194;5.532;2022-11-09T05:31:16;7.07;;;2.65;;
51556;SDS011;38766;53.194;5.532;2022-11-09T05:33:42;9.35;;;2.70;;
51556;SDS011;38766;53.194;5.532;2022-11-09T05:36:08;13.02;;;2.40;;
51556;SDS011;38766;53.194;5.532;2022-11-09T05:38:34;9.23;;;2.67;;
51556;SDS011;38766;53.194;5.532;2022-11-09T05:40:59;11.75;;;2.88;;
51556;SDS011;38766;53.194;5.532;2022-11-09T05:43:25;13.60;;;2.95;;
51556;SDS011;38766;53.194;5.532;2022-11-09T05:45:50;10.20;;;3.08;;
51556;SDS011;38766;53.194;5.532;2022-11-09T05:48:16;11.35;;;2.90;;
51556;SDS011;38766;53.194;5.532;2022-11-09T05:50:42;7.68;;;2.92;;
51556;SDS011;38766;53.194;5.532;2022-11-09T05:53:09;11.10;;;2.60;;
51556;SDS011;38766;53.194;5.532;2022-11-09T05:55:35;12.85;;;2.83;;
51556;SDS011;38766;53.194;5.532;2022-11-09T05:58:01;10.77;;;2.70;;
51556;SDS011;38766;53.194;5.532;2022-11-09T06:00:27;9.55;;;2.75;;
51556;SDS011;38766;53.194;5.532;2022-11-09T06:02:53;8.82;;;2.70;;
51556;SDS011;38766;53.194;5.532;2022-11-09T06:05:19;12.07;;;2.95;;
51556;SDS011;38766;53.194;5.532;2022-11-09T06:07:45;14.13;;;2.83;;
51556;SDS011;38766;53.194;5.532;2022-11-09T06:10:11;11.40;;;2.80;;
51556;SDS011;38766;53.194;5.532;2022-11-09T06:12:36;7.78;;;2.25;;
51556;SDS011;38766;53.194;5.532;2022-11-09T06:15:02;8.63;;;2.30;;
51556;SDS011;38766;53.194;5.532;2022-11-09T06:17:29;9.77;;;2.92;;
51556;SDS011;38766;53.194;5.532;2022-11-09T06:19:55;6.05;;;2.33;;
51556;SDS011;38766;53.194;5.532;2022-11-09T06:22:20;9.43;;;2.45;;
51556;SDS011;38766;53.194;5.532;2022-11-09T06:24:46;8.75;;;2.55;;
51556;SDS011;38766;53.194;5.532;2022-11-09T06:27:11;9.70;;;2.13;;
51556;SDS011;38766;53.194;5.532;2022-11-09T06:29:37;11.20;;;2.47;;
51556;SDS011;38766;53.194;5.532;2022-11-09T06:32:02;11.00;;;2.20;;
51556;SDS011;38766;53.194;5.532;2022-11-09T06:34:28;13.02;;;2.72;;
51556;SDS011;38766;53.194;5.532;2022-11-09T06:36:54;8.57;;;2.45;;
51556;SDS011;38766;53.194;5.532;2022-11-09T06:39:20;16.20;;;2.40;;
51556;SDS011;38766;53.194;5.532;2022-11-09T06:41:46;12.35;;;3.03;;
51556;SDS011;38766;53.194;5.532;2022-11-09T06:44:11;8.30;;;2.22;;
51556;SDS011;38766;53.194;5.532;2022-11-09T06:46:37;9.85;;;2.40;;
51556;SDS011;38766;53.194;5.532;2022-11-09T06:49:03;8.77;;;2.10;;
51556;SDS011;38766;53.194;5.532;2022-11-09T06:51:29;6.75;;;2.35;;
51556;SDS011;38766;53.194;5.532;2022-11-09T06:53:54;9.07;;;2.20;;
51556;SDS011;38766;53.194;5.532;2022-11-09T06:56:20;9.00;;;2.40;;
51556;SDS011;38766;53.194;5.532;2022-11-09T06:58:46;8.82;;;2.42;;
51556;SDS011;38766;53.194;5.532;2022-11-09T07:01:12;7.07;;;2.20;;
51556;SDS011;38766;53.194;5.532;2022-11-09T07:03:41;6.15;;;1.73;;
51556;SDS011;38766;53.194;5.532;2022-11-09T07:06:08;7.05;;;2.00;;
51556;SDS011;38766;53.194;5.532;2022-11-09T07:08:35;7.57;;;2.17;;
51556;SDS011;38766;53.194;5.532;2022-11-09T07:11:05;6.97;;;2.30;;
51556;SDS011;38766;53.194;5.532;2022-11-09T07:13:36;13.75;;;2.30;;
51556;SDS011;38766;53.194;5.532;2022-11-09T07:16:02;7.22;;;2.17;;
51556;SDS011;38766;53.194;5.532;2022-11-09T07:18:28;8.57;;;2.25;;
51556;SDS011;38766;53.194;5.532;2022-11-09T07:20:53;7.45;;;2.22;;
51556;SDS011;38766;53.194;5.532;2022-11-09T07:23:19;9.32;;;3.00;;
51556;SDS011;38766;53.194;5.532;2022-11-09T07:25:44;9.00;;;2.30;;
51556;SDS011;38766;53.194;5.532;2022-11-09T07:28:10;7.18;;;2.58;;
51556;SDS011;38766;53.194;5.532;2022-11-09T07:30:36;6.78;;;2.38;;
51556;SDS011;38766;53.194;5.532;2022-11-09T07:33:03;8.13;;;2.58;;
51556;SDS011;38766;53.194;5.532;2022-11-09T07:35:40;8.52;;;2.58;;
51556;SDS011;38766;53.194;5.532;2022-11-09T07:38:29;9.82;;;2.92;;
51556;SDS011;38766;53.194;5.532;2022-11-09T07:40:58;10.02;;;3.10;;
51556;SDS011;38766;53.194;5.532;2022-11-09T07:43:25;9.38;;;3.25;;
51556;SDS011;38766;53.194;5.532;2022-11-09T07:45:51;9.27;;;2.80;;
51556;SDS011;38766;53.194;5.532;2022-11-09T07:48:17;8.25;;;2.38;;
51556;SDS011;38766;53.194;5.532;2022-11-09T07:50:43;14.20;;;4.50;;
51556;SDS011;38766;53.194;5.532;2022-11-09T07:53:10;12.85;;;2.90;;
51556;SDS011;38766;53.194;5.532;2022-11-09T07:55:37;8.20;;;2.83;;
51556;SDS011;38766;53.194;5.532;2022-11-09T07:58:07;8.55;;;3.08;;
51556;SDS011;38766;53.194;5.532;2022-11-09T08:00:38;13.85;;;2.95;;
51556;SDS011;38766;53.194;5.532;2022-11-09T08:03:05;7.85;;;2.83;;
51556;SDS011;38766;53.194;5.532;2022-11-09T08:05:31;9.18;;;2.97;;
51556;SDS011;38766;53.194;5.532;2022-11-09T08:07:58;8.63;;;3.05;;
51556;SDS011;38766;53.194;5.532;2022-11-09T08:10:30;11.50;;;3.60;;
51556;SDS011;38766;53.194;5.532;2022-11-09T08:13:01;9.30;;;3.50;;
51556;SDS011;38766;53.194;5.532;2022-11-09T08:15:30;8.10;;;3.20;;
51556;SDS011;38766;53.194;5.532;2022-11-09T08:18:00;6.38;;;2.88;;
51556;SDS011;38766;53.194;5.532;2022-11-09T08:20:27;12.32;;;2.92;;
51556;SDS011;38766;53.194;5.532;2022-11-09T08:22:54;11.25;;;3.10;;
51556;SDS011;38766;53.194;5.532;2022-11-09T08:25:19;11.02;;;3.20;;
51556;SDS011;38766;53.194;5.532;2022-11-09T08:27:45;13.45;;;3.00;;
51556;SDS011;38766;53.194;5.532;2022-11-09T08:30:12;10.25;;;3.17;;
51556;SDS011;38766;53.194;5.532;2022-11-09T08:32:43;9.98;;;2.95;;
51556;SDS011;38766;53.194;5.532;2022-11-09T08:35:09;10.18;;;3.00;;
51556;SDS011;38766;53.194;5.532;2022-11-09T08:37:37;7.47;;;2.88;;
51556;SDS011;38766;53.194;5.532;2022-11-09T08:40:03;9.85;;;3.10;;
51556;SDS011;38766;53.194;5.532;2022-11-09T08:42:30;10.02;;;3.30;;
51556;SDS011;38766;53.194;5.532;2022-11-09T08:44:56;17.08;;;4.00;;
51556;SDS011;38766;53.194;5.532;2022-11-09T08:47:22;8.40;;;3.03;;
51556;SDS011;38766;53.194;5.532;2022-11-09T08:49:47;12.32;;;3.25;;
51556;SDS011;38766;53.194;5.532;2022-11-09T08:52:14;8.23;;;3.38;;
51556;SDS011;38766;53.194;5.532;2022-11-09T08:54:41;7.85;;;2.40;;
51556;SDS011;38766;53.194;5.532;2022-11-09T08:57:07;16.67;;;3.65;;
51556;SDS011;38766;53.194;5.532;2022-11-09T08:59:33;7.88;;;3.25;;
51556;SDS011;38766;53.194;5.532;2022-11-09T09:01:58;10.23;;;3.25;;
51556;SDS011;38766;53.194;5.532;2022-11-09T09:04:24;10.30;;;3.22;;
51556;SDS011;38766;53.194;5.532;2022-11-09T09:06:50;13.77;;;3.05;;
51556;SDS011;38766;53.194;5.532;2022-11-09T09:09:16;7.13;;;2.97;;
51556;SDS011;38766;53.194;5.532;2022-11-09T09:11:42;14.05;;;3.47;;
51556;SDS011;38766;53.194;5.532;2022-11-09T09:14:07;10.27;;;2.70;;
51556;SDS011;38766;53.194;5.532;2022-11-09T09:16:33;7.97;;;2.97;;
51556;SDS011;38766;53.194;5.532;2022-11-09T09:18:58;7.80;;;2.60;;
51556;SDS011;38766;53.194;5.532;2022-11-09T09:21:24;10.38;;;2.90;;
51556;SDS011;38766;53.194;5.532;2022-11-09T09:23:50;8.48;;;3.05;;
51556;SDS011;38766;53.194;5.532;2022-11-09T09:26:15;9.20;;;3.15;;
51556;SDS011;38766;53.194;5.532;2022-11-09T09:28:41;5.68;;;2.20;;
51556;SDS011;38766;53.194;5.532;2022-11-09T09:31:07;12.75;;;3.05;;
51556;SDS011;38766;53.194;5.532;2022-11-09T09:33:33;11.95;;;2.78;;
51556;SDS011;38766;53.194;5.532;2022-11-09T09:35:58;11.23;;;2.67;;
51556;SDS011;38766;53.194;5.532;2022-11-09T09:38:24;15.45;;;3.22;;
51556;SDS011;38766;53.194;5.532;2022-11-09T09:40:53;13.05;;;2.47;;
51556;SDS011;38766;53.194;5.532;2022-11-09T09:46:11;8.23;;;2.42;;
51556;SDS011;38766;53.194;5.532;2022-11-09T09:49:04;9.43;;;2.97;;
51556;SDS011;38766;53.194;5.532;2022-11-09T09:51:37;9.77;;;2.63;;
51556;SDS011;38766;53.194;5.532;2022-11-09T09:54:17;8.50;;;2.85;;
51556;SDS011;38766;53.194;5.532;2022-11-09T09:56:49;10.15;;;2.83;;
51556;SDS011;38766;53.194;5.532;2022-11-09T09:59:20;12.23;;;3.40;;
51556;SDS011;38766;53.194;5.532;2022-11-09T10:04:45;10.45;;;3.38;;
51556;SDS011;38766;53.194;5.532;2022-11-09T10:07:17;12.48;;;3.30;;
51556;SDS011;38766;53.194;5.532;2022-11-09T10:09:55;10.25;;;3.60;;
51556;SDS011;38766;53.194;5.532;2022-11-09T10:15:32;13.60;;;2.90;;
51556;SDS011;38766;53.194;5.532;2022-11-09T10:21:26;11.10;;;3.35;;
51556;SDS011;38766;53.194;5.532;2022-11-09T10:24:22;17.20;;;4.30;;
51556;SDS011;38766;53.194;5.532;2022-11-09T10:26:59;12.80;;;3.65;;
51556;SDS011;38766;53.194;5.532;2022-11-09T10:29:30;12.10;;;3.22;;
51556;SDS011;38766;53.194;5.532;2022-11-09T10:32:16;9.52;;;3.33;;
51556;SDS011;38766;53.194;5.532;2022-11-09T10:34:51;11.88;;;3.22;;
51556;SDS011;38766;53.194;5.532;2022-11-09T10:37:32;13.50;;;3.42;;
51556;SDS011;38766;53.194;5.532;2022-11-09T10:42:56;15.75;;;3.83;;
51556;SDS011;38766;53.194;5.532;2022-11-09T10:47:59;10.48;;;3.78;;
51556;SDS011;38766;53.194;5.532;2022-11-09T10:50:38;11.48;;;4.22;;
51556;SDS011;38766;53.194;5.532;2022-11-09T10:53:25;12.63;;;3.40;;
51556;SDS011;38766;53.194;5.532;2022-11-09T10:55:57;11.10;;;4.05;;
51556;SDS011;38766;53.194;5.532;2022-11-09T10:58:39;12.45;;;3.70;;
51556;SDS011;38766;53.194;5.532;2022-11-09T11:03:40;8.25;;;3.13;;
51556;SDS011;38766;53.194;5.532;2022-11-09T11:11:24;10.80;;;3.28;;
51556;SDS011;38766;53.194;5.532;2022-11-09T11:13:50;10.15;;;3.80;;
51556;SDS011;38766;53.194;5.532;2022-11-09T11:16:41;12.93;;;3.67;;
51556;SDS011;38766;53.194;5.532;2022-11-09T11:22:13;10.90;;;3.28;;
51556;SDS011;38766;53.194;5.532;2022-11-09T11:27:45;8.98;;;3.55;;
51556;SDS011;38766;53.194;5.532;2022-11-09T11:30:18;14.95;;;4.55;;
51556;SDS011;38766;53.194;5.532;2022-11-09T11:32:52;10.18;;;3.80;;
51556;SDS011;38766;53.194;5.532;2022-11-09T11:38:10;9.73;;;3.72;;
51556;SDS011;38766;53.194;5.532;2022-11-09T11:41:00;14.57;;;3.60;;
51556;SDS011;38766;53.194;5.532;2022-11-09T11:43:47;7.35;;;2.90;;
51556;SDS011;38766;53.194;5.532;2022-11-09T12:21:54;1.25;;;1.05;;
51556;SDS011;38766;53.194;5.532;2022-11-09T12:27:34;2.67;;;1.60;;
51556;SDS011;38766;53.194;5.532;2022-11-09T12:30:19;3.53;;;2.00;;
51556;SDS011;38766;53.194;5.532;2022-11-09T12:32:58;2.70;;;1.80;;
51556;SDS011;38766;53.194;5.532;2022-11-09T12:38:25;2.28;;;1.67;;
51556;SDS011;38766;53.194;5.532;2022-11-09T12:41:09;5.95;;;1.85;;
51556;SDS011;38766;53.194;5.532;2022-11-09T12:46:17;3.05;;;1.60;;
51556;SDS011;38766;53.194;5.532;2022-11-09T12:48:48;5.25;;;1.95;;
51556;SDS011;38766;53.194;5.532;2022-11-09T12:51:14;3.00;;;1.55;;
51556;SDS011;38766;53.194;5.532;2022-11-09T12:53:40;7.78;;;1.90;;
51556;SDS011;38766;53.194;5.532;2022-11-09T12:58:49;8.23;;;1.85;;
51556;SDS011;38766;53.194;5.532;2022-11-09T13:01:42;7.30;;;1.92;;
51556;SDS011;38766;53.194;5.532;2022-11-09T13:04:10;9.38;;;2.13;;
51556;SDS011;38766;53.194;5.532;2022-11-09T13:06:42;7.10;;;2.13;;
51556;SDS011;38766;53.194;5.532;2022-11-09T13:09:28;11.20;;;2.58;;
51556;SDS011;38766;53.194;5.532;2022-11-09T13:11:55;10.02;;;2.90;;
51556;SDS011;38766;53.194;5.532;2022-11-09T13:16:47;5.35;;;1.90;;
51556;SDS011;38766;53.194;5.532;2022-11-09T13:19:56;6.47;;;2.33;;
51556;SDS011;38766;53.194;5.532;2022-11-09T13:40:50;10.32;;;2.60;;
51556;SDS011;38766;53.194;5.532;2022-11-09T13:43:27;6.35;;;2.00;;
51556;SDS011;38766;53.194;5.532;2022-11-09T13:46:23;6.88;;;2.30;;
51556;SDS011;38766;53.194;5.532;2022-11-09T13:48:53;14.30;;;2.50;;
51556;SDS011;38766;53.194;5.532;2022-11-09T13:51:23;13.20;;;3.33;;
51556;SDS011;38766;53.194;5.532;2022-11-09T13:54:29;11.48;;;3.00;;
51556;SDS011;38766;53.194;5.532;2022-11-09T13:56:55;9.40;;;2.67;;
51556;SDS011;38766;53.194;5.532;2022-11-09T13:59:25;8.70;;;2.35;;
51556;SDS011;38766;53.194;5.532;2022-11-09T14:01:59;12.38;;;2.55;;
51556;SDS011;38766;53.194;5.532;2022-11-09T14:04:27;11.32;;;2.67;;
51556;SDS011;38766;53.194;5.532;2022-11-09T14:07:06;8.30;;;2.45;;
51556;SDS011;38766;53.194;5.532;2022-11-09T14:10:02;7.13;;;1.90;;
51556;SDS011;38766;53.194;5.532;2022-11-09T14:20:54;5.32;;;1.80;;
51556;SDS011;38766;53.194;5.532;2022-11-09T14:23:22;6.72;;;1.60;;
51556;SDS011;38766;53.194;5.532;2022-11-09T14:25:52;6.47;;;1.75;;
51556;SDS011;38766;53.194;5.532;2022-11-09T14:28:20;6.85;;;1.60;;
51556;SDS011;38766;53.194;5.532;2022-11-09T14:30:47;7.20;;;1.60;;
51556;SDS011;38766;53.194;5.532;2022-11-09T14:33:19;6.95;;;1.42;;
51556;SDS011;38766;53.194;5.532;2022-11-09T14:35:50;5.55;;;1.60;;
51556;SDS011;38766;53.194;5.532;2022-11-09T14:38:18;5.65;;;1.70;;
51556;SDS011;38766;53.194;5.532;2022-11-09T14:40:46;6.40;;;1.70;;
51556;SDS011;38766;53.194;5.532;2022-11-09T14:45:51;6.18;;;1.75;;
51556;SDS011;38766;53.194;5.532;2022-11-09T14:48:19;5.65;;;1.73;;
51556;SDS011;38766;53.194;5.532;2022-11-09T14:50:46;9.35;;;2.08;;
51556;SDS011;38766;53.194;5.532;2022-11-09T14:53:13;6.65;;;1.70;;
51556;SDS011;38766;53.194;5.532;2022-11-09T14:55:59;7.38;;;1.38;;
51556;SDS011;38766;53.194;5.532;2022-11-09T14:58:28;6.88;;;1.42;;
51556;SDS011;38766;53.194;5.532;2022-11-09T15:03:41;8.57;;;2.33;;
51556;SDS011;38766;53.194;5.532;2022-11-09T15:06:09;6.18;;;1.95;;
51556;SDS011;38766;53.194;5.532;2022-11-09T15:08:51;8.30;;;1.83;;
51556;SDS011;38766;53.194;5.532;2022-11-09T15:11:20;11.05;;;1.95;;
51556;SDS011;38766;53.194;5.532;2022-11-09T15:16:43;11.70;;;2.10;;
51556;SDS011;38766;53.194;5.532;2022-11-09T15:25:01;11.77;;;2.55;;
51556;SDS011;38766;53.194;5.532;2022-11-09T15:27:42;17.10;;;2.65;;
51556;SDS011;38766;53.194;5.532;2022-11-09T15:30:46;9.57;;;2.22;;
51556;SDS011;38766;53.194;5.532;2022-11-09T15:35:50;8.15;;;2.17;;
51556;SDS011;38766;53.194;5.532;2022-11-09T15:38:35;10.85;;;2.33;;
51556;SDS011;38766;53.194;5.532;2022-11-09T15:41:05;15.75;;;2.40;;
51556;SDS011;38766;53.194;5.532;2022-11-09T15:43:35;16.02;;;2.85;;
51556;SDS011;38766;53.194;5.532;2022-11-09T15:46:01;12.30;;;2.90;;
51556;SDS011;38766;53.194;5.532;2022-11-09T15:48:28;16.63;;;3.10;;
51556;SDS011;38766;53.194;5.532;2022-11-09T15:50:54;10.23;;;4.13;;
51556;SDS011;38766;53.194;5.532;2022-11-09T15:53:19;16.05;;;5.30;;
51556;SDS011;38766;53.194;5.532;2022-11-09T15:55:45;17.52;;;6.65;;
51556;SDS011;38766;53.194;5.532;2022-11-09T15:58:12;16.85;;;4.95;;
51556;SDS011;38766;53.194;5.532;2022-11-09T16:00:40;14.93;;;4.05;;
51556;SDS011;38766;53.194;5.532;2022-11-09T16:03:06;10.48;;;2.83;;
51556;SDS011;38766;53.194;5.532;2022-11-09T16:05:33;11.10;;;2.55;;
51556;SDS011;38766;53.194;5.532;2022-11-09T16:07:59;9.80;;;2.45;;
51556;SDS011;38766;53.194;5.532;2022-11-09T16:10:24;6.65;;;2.10;;
51556;SDS011;38766;53.194;5.532;2022-11-09T16:12:54;9.45;;;2.10;;
51556;SDS011;38766;53.194;5.532;2022-11-09T16:15:24;8.85;;;1.83;;
51556;SDS011;38766;53.194;5.532;2022-11-09T16:17:50;6.07;;;1.70;;
51556;SDS011;38766;53.194;5.532;2022-11-09T16:20:16;9.30;;;2.17;;
51556;SDS011;38766;53.194;5.532;2022-11-09T16:22:43;9.32;;;2.25;;
51556;SDS011;38766;53.194;5.532;2022-11-09T16:25:09;6.25;;;1.90;;
51556;SDS011;38766;53.194;5.532;2022-11-09T16:27:35;10.00;;;1.98;;
51556;SDS011;38766;53.194;5.532;2022-11-09T16:30:01;7.15;;;1.70;;
51556;SDS011;38766;53.194;5.532;2022-11-09T16:32:27;8.70;;;2.10;;
51556;SDS011;38766;53.194;5.532;2022-11-09T16:34:53;16.98;;;2.17;;
51556;SDS011;38766;53.194;5.532;2022-11-09T16:37:19;9.85;;;2.42;;
51556;SDS011;38766;53.194;5.532;2022-11-09T16:39:45;6.75;;;1.90;;
51556;SDS011;38766;53.194;5.532;2022-11-09T16:42:11;11.93;;;2.75;;
51556;SDS011;38766;53.194;5.532;2022-11-09T16:44:40;15.88;;;3.38;;
51556;SDS011;38766;53.194;5.532;2022-11-09T16:47:08;7.22;;;2.40;;
51556;SDS011;38766;53.194;5.532;2022-11-09T16:49:38;10.88;;;2.40;;
51556;SDS011;38766;53.194;5.532;2022-11-09T16:52:03;8.93;;;2.33;;
51556;SDS011;38766;53.194;5.532;2022-11-09T16:54:29;7.97;;;1.88;;
51556;SDS011;38766;53.194;5.532;2022-11-09T16:56:55;9.93;;;2.53;;
51556;SDS011;38766;53.194;5.532;2022-11-09T16:59:21;9.23;;;1.88;;